createdAt,value
2019-05-28T00:01:56.169Z,3.10
2019-05-28T00:04:22.191Z,3.70
2019-05-28T00:06:48.223Z,4.03
2019-05-28T00:09:14.241Z,3.37
2019-05-28T00:11:40.291Z,3.37
2019-05-28T00:14:06.295Z,3.40
2019-05-28T00:16:32.339Z,3.47
2019-05-28T00:18:58.358Z,3.17
2019-05-28T00:21:24.400Z,3.40
2019-05-28T00:23:50.419Z,3.57
2019-05-28T00:26:16.467Z,3.07
2019-05-28T00:28:42.532Z,3.23
2019-05-28T00:31:08.579Z,3.43
2019-05-28T00:33:34.601Z,3.73
2019-05-28T00:36:00.632Z,3.43
2019-05-28T00:38:26.665Z,3.60
2019-05-28T00:40:52.702Z,3.80
2019-05-28T00:43:18.720Z,3.93
2019-05-28T00:45:44.730Z,3.60
2019-05-28T00:48:10.838Z,3.63
2019-05-28T00:50:36.951Z,3.83
2019-05-28T00:53:03.203Z,3.07
2019-05-28T00:55:29.219Z,3.67
2019-05-28T00:57:55.775Z,4.10
2019-05-28T01:00:43.659Z,4.13
2019-05-28T01:03:09.707Z,4.20
2019-05-28T01:05:35.736Z,4.60
2019-05-28T01:08:02.363Z,4.87
2019-05-28T01:10:28.371Z,5.00
2019-05-28T01:12:54.425Z,4.67
2019-05-28T01:15:20.432Z,4.50
2019-05-28T01:17:46.482Z,4.30
2019-05-28T01:20:12.898Z,4.60
2019-05-28T01:22:38.951Z,4.30
2019-05-28T01:25:06.765Z,4.40
2019-05-28T01:27:32.923Z,4.07
2019-05-28T01:29:58.935Z,4.57
2019-05-28T01:32:25.007Z,4.07
2019-05-28T01:34:51.002Z,3.57
2019-05-28T01:37:17.247Z,3.70
2019-05-28T01:39:43.371Z,3.70
2019-05-28T01:42:09.419Z,3.40
2019-05-28T01:44:35.431Z,4.40
2019-05-28T01:47:02.006Z,3.30
2019-05-28T01:49:28.063Z,3.07
2019-05-28T01:51:54.126Z,3.17
2019-05-28T01:54:20.143Z,3.30
2019-05-28T01:56:46.191Z,3.13
2019-05-28T01:59:12.196Z,3.23
2019-05-28T02:01:38.194Z,3.23
2019-05-28T02:04:04.244Z,3.60
2019-05-28T02:06:30.259Z,3.33
2019-05-28T02:08:56.303Z,2.47
2019-05-28T02:11:22.315Z,2.47
2019-05-28T02:13:48.386Z,2.47
2019-05-28T02:16:14.408Z,2.47
2019-05-28T02:18:40.447Z,2.37
2019-05-28T02:21:06.483Z,2.60
2019-05-28T02:23:32.530Z,2.40
2019-05-28T02:25:58.583Z,2.60
2019-05-28T02:28:24.653Z,2.67
2019-05-28T02:30:50.686Z,2.27
2019-05-28T02:33:16.716Z,2.73
2019-05-28T02:35:42.727Z,2.03
2019-05-28T02:38:08.767Z,2.27
2019-05-28T02:40:34.783Z,2.40
2019-05-28T02:43:01.254Z,2.37
2019-05-28T02:45:27.359Z,2.37
2019-05-28T02:47:53.454Z,1.93
2019-05-28T02:50:40.058Z,2.00
2019-05-28T02:53:06.202Z,1.77
2019-05-28T02:55:33.228Z,1.83
2019-05-28T02:57:59.368Z,2.30
2019-05-28T03:00:25.582Z,2.33
2019-05-28T03:02:52.334Z,1.90
2019-05-28T03:05:18.443Z,1.93
2019-05-28T03:07:45.390Z,1.60
2019-05-28T03:10:12.045Z,1.50
2019-05-28T03:12:38.163Z,1.92
2019-05-28T03:15:06.379Z,1.57
2019-05-28T03:17:34.331Z,1.50
2019-05-28T03:20:01.343Z,1.80
2019-05-28T03:22:29.856Z,1.60
2019-05-28T03:24:56.820Z,1.50
2019-05-28T03:27:22.824Z,1.53
2019-05-28T03:29:48.935Z,1.63
2019-05-28T03:32:15.048Z,1.47
2019-05-28T03:34:42.174Z,1.60
2019-05-28T03:37:10.203Z,1.83
2019-05-28T03:39:37.552Z,1.37
2019-05-28T03:42:03.555Z,4.10
2019-05-28T03:44:29.610Z,1.33
2019-05-28T03:46:55.614Z,1.43
2019-05-28T03:49:21.670Z,1.60
2019-05-28T03:51:47.675Z,2.43
2019-05-28T03:54:13.724Z,1.47
2019-05-28T03:56:39.742Z,1.53
2019-05-28T03:59:05.783Z,1.50
2019-05-28T04:01:31.790Z,1.20
2019-05-28T04:03:57.862Z,1.40
2019-05-28T04:06:23.971Z,1.57
2019-05-28T04:08:50.018Z,1.30
2019-05-28T04:11:16.130Z,1.30
2019-05-28T04:13:42.245Z,1.40
2019-05-28T04:16:08.286Z,1.50
2019-05-28T04:18:34.301Z,1.20
2019-05-28T04:21:00.359Z,1.10
2019-05-28T04:23:26.362Z,1.00
2019-05-28T04:25:52.425Z,1.50
2019-05-28T04:28:18.547Z,1.57
2019-05-28T04:30:44.597Z,1.37
2019-05-28T04:33:10.719Z,1.23
2019-05-28T04:35:36.759Z,1.30
2019-05-28T04:38:02.770Z,1.43
2019-05-28T04:40:28.980Z,1.07
2019-05-28T04:42:54.983Z,1.70
2019-05-28T04:45:21.021Z,1.43
2019-05-28T04:47:47.071Z,1.32
2019-05-28T04:50:13.783Z,1.30
2019-05-28T04:52:39.901Z,1.43
2019-05-28T04:55:06.023Z,1.20
2019-05-28T04:57:32.171Z,1.00
2019-05-28T04:59:58.190Z,1.20
2019-05-28T05:02:24.239Z,1.10
2019-05-28T05:04:50.455Z,1.10
2019-05-28T05:07:16.512Z,1.50
2019-05-28T05:09:42.519Z,1.23
2019-05-28T05:12:08.595Z,2.03
2019-05-28T05:14:34.615Z,1.77
2019-05-28T05:17:02.002Z,1.77
2019-05-28T05:19:28.030Z,1.53
2019-05-28T05:21:54.081Z,1.67
2019-05-28T05:24:20.125Z,1.87
2019-05-28T05:26:46.195Z,1.33
2019-05-28T05:29:12.235Z,1.37
2019-05-28T05:31:38.284Z,0.97
2019-05-28T05:34:04.316Z,1.80
2019-05-28T05:36:30.372Z,1.80
2019-05-28T05:38:56.496Z,1.60
2019-05-28T05:41:22.532Z,1.90
2019-05-28T05:43:48.534Z,1.30
2019-05-28T05:46:14.593Z,1.50
2019-05-28T05:48:40.606Z,1.93
2019-05-28T05:51:06.747Z,2.00
2019-05-28T05:53:32.759Z,1.67
2019-05-28T05:55:58.820Z,1.90
2019-05-28T05:58:24.832Z,1.50
2019-05-28T06:00:50.844Z,1.80
2019-05-28T06:03:16.919Z,2.55
2019-05-28T06:05:42.923Z,2.03
2019-05-28T06:08:08.995Z,1.63
2019-05-28T06:10:35.016Z,1.80
2019-05-28T06:13:02.072Z,1.70
2019-05-28T06:15:28.076Z,1.97
2019-05-28T06:17:54.124Z,2.23
2019-05-28T06:20:20.137Z,1.30
2019-05-28T06:22:46.179Z,2.07
2019-05-28T06:25:12.800Z,1.70
2019-05-28T06:27:38.847Z,1.60
2019-05-28T06:30:06.790Z,1.60
2019-05-28T06:32:34.535Z,1.93
2019-05-28T06:35:00.783Z,2.07
2019-05-28T06:37:26.827Z,1.87
2019-05-28T06:39:52.847Z,2.13
2019-05-28T06:42:18.888Z,2.10
2019-05-28T06:44:44.929Z,2.10
2019-05-28T06:47:11.100Z,1.57
2019-05-28T06:49:37.109Z,2.97
2019-05-28T06:52:03.179Z,2.43
2019-05-28T06:54:29.278Z,2.00
2019-05-28T06:56:55.333Z,1.73
2019-05-28T06:59:21.335Z,1.73
2019-05-28T07:01:47.387Z,2.13
2019-05-28T07:04:23.706Z,2.00
2019-05-28T07:06:41.484Z,2.37
2019-05-28T07:09:07.491Z,2.60
2019-05-28T07:11:33.603Z,2.27
2019-05-28T07:13:59.655Z,2.07
2019-05-28T07:16:25.659Z,2.53
2019-05-28T07:18:51.713Z,2.57
2019-05-28T07:21:17.719Z,3.17
2019-05-28T07:23:43.772Z,2.50
2019-05-28T07:26:09.879Z,2.60
2019-05-28T07:28:35.951Z,3.67
2019-05-28T07:31:02.017Z,2.47
2019-05-28T07:33:28.060Z,2.53
2019-05-28T07:35:54.071Z,2.77
2019-05-28T07:38:20.124Z,2.90
2019-05-28T07:40:46.139Z,3.83
2019-05-28T07:43:12.197Z,2.63
2019-05-28T07:45:38.603Z,3.30
2019-05-28T07:48:04.649Z,2.80
2019-05-28T07:50:30.680Z,2.57
2019-05-28T07:52:57.819Z,2.20
2019-05-28T07:55:23.834Z,2.10
2019-05-28T07:57:49.852Z,2.63
2019-05-28T08:00:19.707Z,3.07
2019-05-28T08:02:45.807Z,2.90
2019-05-28T08:05:16.868Z,1.77
2019-05-28T08:08:00.425Z,2.10
2019-05-28T08:10:29.313Z,2.33
2019-05-28T08:12:54.379Z,2.63
2019-05-28T08:15:20.460Z,2.60
2019-05-28T08:17:46.536Z,2.43
2019-05-28T08:20:12.758Z,2.87
2019-05-28T08:22:42.770Z,3.13
2019-05-28T08:25:23.519Z,3.07
2019-05-28T08:27:34.819Z,3.20
2019-05-28T08:30:04.836Z,2.20
2019-05-28T08:32:30.951Z,2.23
2019-05-28T08:35:05.608Z,2.10
2019-05-28T08:37:25.048Z,2.30
2019-05-28T08:39:51.118Z,3.07
2019-05-28T08:42:20.818Z,2.10
2019-05-28T08:44:45.141Z,2.37
2019-05-28T08:47:11.204Z,2.17
2019-05-28T08:49:37.232Z,2.00
2019-05-28T08:52:03.461Z,1.90
2019-05-28T08:54:29.491Z,2.23
2019-05-28T08:56:55.534Z,1.60
2019-05-28T08:59:21.531Z,1.63
2019-05-28T09:01:47.587Z,2.20
2019-05-28T09:04:13.580Z,2.00
2019-05-28T09:06:39.615Z,2.27
2019-05-28T09:09:05.837Z,2.37
2019-05-28T09:11:31.883Z,1.87
2019-05-28T09:13:57.895Z,2.03
2019-05-28T09:16:23.904Z,1.70
2019-05-28T09:18:49.974Z,2.20
2019-05-28T09:21:15.983Z,2.00
2019-05-28T09:23:42.068Z,1.60
2019-05-28T09:26:08.151Z,1.30
2019-05-28T09:28:34.197Z,2.67
2019-05-28T09:31:00.244Z,1.77
2019-05-28T09:33:26.395Z,2.27
2019-05-28T09:36:07.417Z,1.57
2019-05-28T09:38:20.468Z,1.97
2019-05-28T09:40:50.487Z,2.00
2019-05-28T09:43:14.527Z,2.20
2019-05-28T09:45:40.539Z,2.07
2019-05-28T09:48:06.629Z,1.70
2019-05-28T09:50:32.750Z,1.40
2019-05-28T09:52:58.810Z,1.90
2019-05-28T09:55:24.823Z,1.70
2019-05-28T09:57:50.995Z,1.80
2019-05-28T10:00:21.239Z,1.70
2019-05-28T10:02:47.816Z,2.10
2019-05-28T10:05:15.051Z,1.50
2019-05-28T10:07:41.075Z,1.83
2019-05-28T10:10:07.235Z,1.53
2019-05-28T10:12:33.235Z,1.83
2019-05-28T10:14:59.278Z,1.90
2019-05-28T10:17:25.283Z,1.67
2019-05-28T10:19:51.332Z,1.77
2019-05-28T10:22:17.335Z,1.50
2019-05-28T10:24:43.388Z,1.90
2019-05-28T10:27:09.403Z,2.02
2019-05-28T10:29:35.518Z,2.13
2019-05-28T10:32:02.564Z,1.80
2019-05-28T10:34:28.575Z,2.20
2019-05-28T10:36:54.623Z,1.50
2019-05-28T10:39:20.646Z,1.40
2019-05-28T10:41:46.683Z,1.20
2019-05-28T10:44:12.707Z,1.70
2019-05-28T10:46:38.755Z,1.57
2019-05-28T10:49:04.767Z,1.57
2019-05-28T10:51:30.816Z,1.10
2019-05-28T10:53:56.935Z,1.73
2019-05-28T10:56:23.304Z,0.70
2019-05-28T10:58:49.508Z,0.83
2019-05-28T11:01:15.553Z,0.70
2019-05-28T11:03:41.559Z,0.60
2019-05-28T11:06:07.620Z,0.70
2019-05-28T11:08:33.743Z,0.50
2019-05-28T11:10:59.774Z,0.80
2019-05-28T11:13:25.813Z,0.70
2019-05-28T11:15:51.852Z,0.83
2019-05-28T11:18:17.859Z,0.40
2019-05-28T11:20:43.923Z,0.60
2019-05-28T11:23:09.937Z,0.60
2019-05-28T11:25:36.003Z,0.60
2019-05-28T11:28:02.126Z,0.77
2019-05-28T11:30:28.335Z,0.80
2019-05-28T11:32:54.336Z,0.80
2019-05-28T11:35:20.820Z,0.70
2019-05-28T11:37:46.838Z,1.13
2019-05-28T11:40:13.258Z,0.80
2019-05-28T11:42:39.298Z,1.10
2019-05-28T11:45:09.965Z,1.10
2019-05-28T11:47:36.215Z,1.10
2019-05-28T11:50:07.770Z,0.97
2019-05-28T11:52:33.827Z,0.70
2019-05-28T11:54:59.847Z,0.70
2019-05-28T11:57:25.888Z,0.50
2019-05-28T11:59:51.912Z,1.00
2019-05-28T12:02:17.959Z,1.13
2019-05-28T12:04:44.034Z,1.10
2019-05-28T12:07:24.973Z,0.80
2019-05-28T12:09:38.055Z,1.17
2019-05-28T12:12:04.206Z,1.07
2019-05-28T12:14:30.238Z,1.00
2019-05-28T12:16:56.292Z,1.07
2019-05-28T12:19:22.304Z,1.13
2019-05-28T12:21:48.506Z,1.00
2019-05-28T12:24:14.601Z,1.47
2019-05-28T12:26:40.761Z,0.93
2019-05-28T12:29:07.025Z,1.00
2019-05-28T12:31:33.123Z,1.20
2019-05-28T12:33:59.212Z,0.90
2019-05-28T12:36:25.225Z,0.70
2019-05-28T12:38:51.263Z,0.90
2019-05-28T12:41:17.273Z,0.50
2019-05-28T12:43:43.320Z,0.73
2019-05-28T12:46:09.391Z,0.70
2019-05-28T12:48:35.767Z,0.60
2019-05-28T12:51:02.420Z,0.83
2019-05-28T12:53:48.178Z,0.80
2019-05-28T12:55:56.486Z,0.60
2019-05-28T12:58:40.483Z,0.60
2019-05-28T13:00:50.803Z,0.63
2019-05-28T13:03:16.936Z,0.70
2019-05-28T13:05:43.047Z,0.80
2019-05-28T13:08:10.626Z,0.70
2019-05-28T13:10:36.935Z,0.93
2019-05-28T13:13:03.451Z,0.60
2019-05-28T13:15:29.496Z,0.60
2019-05-28T13:17:55.520Z,0.60
2019-05-28T13:20:21.638Z,0.60
2019-05-28T13:22:47.688Z,0.70
2019-05-28T13:25:15.346Z,0.93
2019-05-28T13:27:41.334Z,0.90
2019-05-28T13:30:08.949Z,0.98
2019-05-28T13:32:35.214Z,0.80
2019-05-28T13:35:01.935Z,0.80
2019-05-28T13:37:28.192Z,0.70
2019-05-28T13:39:54.258Z,0.83
2019-05-28T13:42:20.261Z,0.90
2019-05-28T13:44:46.321Z,0.60
2019-05-28T13:47:29.992Z,0.80
2019-05-28T13:49:40.283Z,0.80
2019-05-28T13:52:12.172Z,1.17
2019-05-28T13:54:36.457Z,1.17
2019-05-28T13:57:02.594Z,0.70
2019-05-28T13:59:28.713Z,1.43
2019-05-28T14:01:54.777Z,0.80
2019-05-28T14:04:20.825Z,0.80
2019-05-28T14:06:46.869Z,0.77
2019-05-28T14:09:13.018Z,0.70
2019-05-28T14:11:39.034Z,0.97
2019-05-28T14:14:05.033Z,1.07
2019-05-28T14:16:31.103Z,0.70
2019-05-28T14:18:57.111Z,0.90
2019-05-28T14:21:23.160Z,0.97
2019-05-28T14:23:49.182Z,0.90
2019-05-28T14:26:15.247Z,1.37
2019-05-28T14:28:41.259Z,0.83
2019-05-28T14:31:07.376Z,0.97
2019-05-28T14:33:33.480Z,0.93
2019-05-28T14:35:59.582Z,0.70
2019-05-28T14:38:25.646Z,0.73
2019-05-28T14:40:52.692Z,1.10
2019-05-28T14:43:18.834Z,0.83
2019-05-28T14:45:44.903Z,0.93
2019-05-28T14:48:10.976Z,0.70
2019-05-28T14:50:37.040Z,0.90
2019-05-28T14:53:03.161Z,1.27
2019-05-28T14:55:29.222Z,0.60
2019-05-28T14:57:55.236Z,0.70
2019-05-28T15:00:22.926Z,1.00
2019-05-28T15:02:49.025Z,0.90
2019-05-28T15:05:15.525Z,0.80
2019-05-28T15:07:41.639Z,0.80
2019-05-28T15:10:10.816Z,0.70
2019-05-28T15:12:36.856Z,0.53
2019-05-28T15:15:05.292Z,0.70
2019-05-28T15:17:31.474Z,0.80
2019-05-28T15:19:57.570Z,1.10
2019-05-28T15:22:23.575Z,1.07
2019-05-28T15:24:50.058Z,0.40
2019-05-28T15:27:16.156Z,0.50
2019-05-28T15:29:42.205Z,0.33
2019-05-28T15:32:08.403Z,0.30
2019-05-28T15:34:34.409Z,0.50
2019-05-28T15:37:02.187Z,0.83
2019-05-28T15:39:39.286Z,0.90
2019-05-28T15:41:56.190Z,1.30
2019-05-28T15:44:24.457Z,1.12
2019-05-28T15:46:50.884Z,2.40
2019-05-28T15:49:17.273Z,1.40
2019-05-28T15:51:43.694Z,1.52
2019-05-28T15:54:10.087Z,1.55
2019-05-28T15:56:36.493Z,1.60
2019-05-28T15:59:02.866Z,1.45
2019-05-28T16:01:29.310Z,1.40
2019-05-28T16:03:55.895Z,1.17
2019-05-28T16:06:22.296Z,1.27
2019-05-28T16:08:48.690Z,1.32
2019-05-28T16:11:15.085Z,1.50
2019-05-28T16:13:41.493Z,1.37
2019-05-28T16:16:08.041Z,1.70
2019-05-28T16:18:34.623Z,1.55
2019-05-28T16:21:00.995Z,1.95
2019-05-28T16:23:27.404Z,2.67
2019-05-28T16:25:53.791Z,2.60
2019-05-28T16:28:20.195Z,3.12
2019-05-28T16:30:46.563Z,2.60
2019-05-28T16:33:12.985Z,2.00
2019-05-28T16:35:39.375Z,2.35
2019-05-28T16:38:05.766Z,1.90
2019-05-28T16:40:32.142Z,2.90
2019-05-28T16:42:58.547Z,1.70
2019-05-28T16:45:25.133Z,2.17
2019-05-28T16:47:51.528Z,3.12
2019-05-28T16:50:18.227Z,4.20
2019-05-28T16:52:44.695Z,2.17
2019-05-28T16:55:11.450Z,1.20
2019-05-28T16:57:37.965Z,0.80
2019-05-28T17:00:05.023Z,0.68
2019-05-28T17:02:31.427Z,0.60
2019-05-28T17:04:57.823Z,0.90
2019-05-28T17:07:24.219Z,0.77
2019-05-28T17:09:50.616Z,0.50
2019-05-28T17:12:17.017Z,0.50
2019-05-28T17:14:43.398Z,0.70
2019-05-28T17:17:09.798Z,0.40
2019-05-28T17:19:36.179Z,0.57
2019-05-28T17:22:02.986Z,0.47
2019-05-28T17:24:29.379Z,0.60
2019-05-28T17:26:55.762Z,0.53
2019-05-28T17:29:22.167Z,0.60
2019-05-28T17:31:48.559Z,0.47
2019-05-28T17:34:14.976Z,0.50
2019-05-28T17:36:41.387Z,0.30
2019-05-28T17:39:07.791Z,0.40
2019-05-28T17:41:34.183Z,0.53
2019-05-28T17:44:01.961Z,0.70
2019-05-28T17:46:28.344Z,1.87
2019-05-28T17:48:54.758Z,2.00
2019-05-28T17:51:21.142Z,0.83
2019-05-28T17:53:47.543Z,1.23
2019-05-28T17:56:13.926Z,1.67
2019-05-28T17:58:40.442Z,1.93
2019-05-28T18:01:07.224Z,1.87
2019-05-28T18:03:35.384Z,1.67
2019-05-28T18:06:02.305Z,1.23
2019-05-28T18:08:29.454Z,2.07
2019-05-28T18:11:04.047Z,2.03
2019-05-28T18:13:27.775Z,1.53
2019-05-28T18:15:52.720Z,1.33
2019-05-28T18:18:19.153Z,2.17
2019-05-28T18:20:45.555Z,0.70
2019-05-28T18:23:11.943Z,0.80
2019-05-28T18:25:38.326Z,0.90
2019-05-28T18:28:04.703Z,0.70
2019-05-28T18:30:31.094Z,0.80
2019-05-28T18:32:57.484Z,0.40
2019-05-28T18:35:23.888Z,0.60
2019-05-28T18:37:50.369Z,2.67
2019-05-28T18:40:16.974Z,0.70
2019-05-28T18:42:43.346Z,0.60
2019-05-28T18:45:09.853Z,0.50
2019-05-28T18:47:37.569Z,0.50
2019-05-28T18:50:04.966Z,0.70
2019-05-28T18:52:31.371Z,1.40
2019-05-28T18:54:57.767Z,0.83
2019-05-28T18:57:24.152Z,0.77
2019-05-28T18:59:50.698Z,0.87
2019-05-28T19:02:17.199Z,1.23
2019-05-28T19:04:43.588Z,0.60
2019-05-28T19:07:10.020Z,0.67
2019-05-28T19:09:36.464Z,0.50
2019-05-28T19:12:03.171Z,0.73
2019-05-28T19:14:29.604Z,0.80
2019-05-28T19:16:56.083Z,1.00
2019-05-28T19:19:22.485Z,0.60
2019-05-28T19:21:48.887Z,0.70
2019-05-28T19:24:15.303Z,1.23
2019-05-28T19:26:41.685Z,0.70
2019-05-28T19:29:08.066Z,0.50
2019-05-28T19:31:34.492Z,0.70
2019-05-28T19:35:54.987Z,0.80
2019-05-28T19:38:21.378Z,0.70
2019-05-28T19:40:47.786Z,0.50
2019-05-28T19:43:14.186Z,0.63
2019-05-28T19:45:40.706Z,0.53
2019-05-28T19:48:27.065Z,0.70
2019-05-28T19:50:53.472Z,0.80
2019-05-28T19:53:19.987Z,0.87
2019-05-28T19:55:46.389Z,0.80
2019-05-28T19:58:12.814Z,0.63
2019-05-28T20:00:39.404Z,0.90
2019-05-28T20:03:05.813Z,1.10
2019-05-28T20:05:32.195Z,1.20
2019-05-28T20:07:58.592Z,0.87
2019-05-28T20:10:24.623Z,0.80
2019-05-28T20:12:50.663Z,0.90
2019-05-28T20:15:21.007Z,1.00
2019-05-28T20:17:46.240Z,0.90
2019-05-28T20:20:13.040Z,0.93
2019-05-28T20:22:39.056Z,0.90
2019-05-28T20:25:06.097Z,0.60
2019-05-28T20:27:32.147Z,0.77
2019-05-28T20:29:58.744Z,0.83
2019-05-28T20:32:24.843Z,0.90
2019-05-28T20:34:51.966Z,1.10
2019-05-28T20:37:17.977Z,0.93
2019-05-28T20:39:44.126Z,0.93
2019-05-28T20:42:18.516Z,1.50
2019-05-28T20:44:38.111Z,2.00
2019-05-28T20:47:06.963Z,1.40
2019-05-28T20:49:35.355Z,1.20
2019-05-28T20:52:01.417Z,1.30
2019-05-28T20:54:27.839Z,1.20
2019-05-28T20:56:55.067Z,1.63
2019-05-28T20:59:21.851Z,1.60
2019-05-28T21:01:59.568Z,1.63
2019-05-28T21:04:25.605Z,1.20
2019-05-28T21:06:52.080Z,1.23
2019-05-28T21:09:18.259Z,1.40
2019-05-28T21:11:44.343Z,1.20
2019-05-28T21:14:11.757Z,1.20
2019-05-28T21:16:38.154Z,1.00
2019-05-28T21:19:04.546Z,1.10
2019-05-28T21:21:30.621Z,1.30
2019-05-28T21:23:56.630Z,1.20
2019-05-28T21:26:22.903Z,1.00
2019-05-28T21:29:08.881Z,0.90
2019-05-28T21:31:35.051Z,1.20
2019-05-28T21:34:01.668Z,1.10
2019-05-28T21:36:27.792Z,1.00
2019-05-28T21:38:53.850Z,1.00
2019-05-28T21:41:19.887Z,0.80
2019-05-28T21:43:45.967Z,1.10
2019-05-28T21:46:12.015Z,1.10
2019-05-28T21:48:38.022Z,1.00
2019-05-28T21:51:04.070Z,1.10
2019-05-28T21:53:30.086Z,1.20
2019-05-28T21:55:57.128Z,1.90
2019-05-28T21:58:23.395Z,1.57
2019-05-28T22:01:04.030Z,1.50
2019-05-28T22:03:30.341Z,1.77
2019-05-28T22:05:57.770Z,1.83
2019-05-28T22:08:23.875Z,1.80
2019-05-28T22:10:49.891Z,1.40
2019-05-28T22:13:21.922Z,1.60
2019-05-28T22:15:43.968Z,1.60
2019-05-28T22:18:10.023Z,1.50
2019-05-28T22:20:36.048Z,3.20
2019-05-28T22:23:02.666Z,2.73
2019-05-28T22:25:28.913Z,4.30
2019-05-28T22:27:56.428Z,3.43
2019-05-28T22:30:22.914Z,3.03
2019-05-28T22:32:51.613Z,3.33
2019-05-28T22:35:39.432Z,4.13
2019-05-28T22:38:05.526Z,4.10
2019-05-28T22:40:31.675Z,3.90
2019-05-28T22:42:58.616Z,3.57
2019-05-28T22:45:25.187Z,3.00
2019-05-28T22:47:51.219Z,2.80
2019-05-28T22:50:22.982Z,1.77
2019-05-28T22:52:45.875Z,1.80
2019-05-28T22:55:12.433Z,2.08
2019-05-28T22:57:38.831Z,1.50
2019-05-28T23:00:06.731Z,1.67
2019-05-28T23:02:33.235Z,1.33
2019-05-28T23:04:59.619Z,1.63
2019-05-28T23:07:26.034Z,1.20
2019-05-28T23:09:52.424Z,1.60
2019-05-28T23:12:38.807Z,1.40
2019-05-28T23:15:08.075Z,1.23
2019-05-28T23:17:34.592Z,1.33
2019-05-28T23:20:00.976Z,1.77
2019-05-28T23:22:27.379Z,2.40
2019-05-28T23:24:53.789Z,2.33
2019-05-28T23:27:20.271Z,2.80
2019-05-28T23:29:46.652Z,3.03
2019-05-28T23:32:13.071Z,2.40
2019-05-28T23:34:39.545Z,2.63
2019-05-28T23:37:07.517Z,2.40
2019-05-28T23:39:34.039Z,2.40
2019-05-28T23:42:03.411Z,2.17
2019-05-28T23:44:29.899Z,1.80
2019-05-28T23:46:56.287Z,2.03
2019-05-28T23:49:22.678Z,1.60
2019-05-28T23:51:49.074Z,1.60
2019-05-28T23:54:15.463Z,1.57
2019-05-28T23:56:41.855Z,1.63
2019-05-28T23:59:08.283Z,1.30
